Time;durP1;ratioP1;P1;durP2;ratioP2;P2;SDS_P1;SDS_P2;PMS_P1;PMS_P2;Temp;Humidity;BMP_temperature;BMP_pressure;BME280_temperature;BME280_humidity;BME280_pressure;Samples;Min_cycle;Max_cycle;Signal;HPM_P1;HPM_P2
2021/01/10 00:00:56;;;;;;;35.38;19.27;;;;;;;0.67;100.00;101505.66;5203510;28;20594;-81
2021/01/10 00:03:26;;;;;;;35.90;19.88;;;;;;;0.71;100.00;101504.88;5204038;28;20135;-80
2021/01/10 00:05:56;;;;;;;38.30;20.75;;;;;;;0.65;100.00;101499.63;5203428;28;20032;-78
2021/01/10 00:08:27;;;;;;;36.10;20.27;;;;;;;0.64;100.00;101512.44;5204020;28;20017;-78
2021/01/10 00:10:57;;;;;;;36.40;20.15;;;;;;;0.78;100.00;101511.88;5204455;28;20104;-78
2021/01/10 00:13:27;;;;;;;33.22;19.75;;;;;;;0.70;100.00;101512.56;5207281;28;20520;-80
2021/01/10 00:15:57;;;;;;;37.72;20.33;;;;;;;0.70;100.00;101508.28;5203346;28;20537;-77
2021/01/10 00:18:27;;;;;;;34.97;19.77;;;;;;;0.61;100.00;101513.28;5203487;28;20036;-81
2021/01/10 00:20:58;;;;;;;35.08;18.98;;;;;;;0.65;100.00;101509.91;5201984;28;20108;-81
2021/01/10 00:23:28;;;;;;;38.75;20.40;;;;;;;0.60;100.00;101502.94;5203182;28;20065;-80
2021/01/10 00:25:58;;;;;;;35.25;20.27;;;;;;;0.70;100.00;101510.84;5203369;28;20768;-81
2021/01/10 00:28:31;;;;;;;38.70;21.42;;;;;;;0.58;100.00;101513.19;5203168;28;20025;-81
2021/01/10 00:31:01;;;;;;;39.35;20.33;;;;;;;0.68;100.00;101515.09;5203182;28;20037;-78
2021/01/10 00:33:31;;;;;;;37.53;20.80;;;;;;;0.79;100.00;101520.44;5203099;28;20033;-77
2021/01/10 00:36:02;;;;;;;37.22;20.58;;;;;;;0.73;100.00;101516.03;5202958;28;20039;-79
2021/01/10 00:38:32;;;;;;;32.83;19.15;;;;;;;0.88;100.00;101526.63;5203227;28;20113;-78
2021/01/10 00:41:02;;;;;;;34.92;19.38;;;;;;;0.63;100.00;101524.44;5202747;28;20021;-78
2021/01/10 00:43:33;;;;;;;34.95;19.08;;;;;;;0.66;100.00;101519.34;5202620;28;20033;-79
2021/01/10 00:46:03;;;;;;;38.55;21.13;;;;;;;0.51;100.00;101525.88;5202792;28;20033;-77
2021/01/10 00:48:33;;;;;;;35.95;19.58;;;;;;;0.59;100.00;101521.78;5202876;28;20033;-78
2021/01/10 00:51:04;;;;;;;35.00;19.30;;;;;;;0.65;100.00;101516.75;5203050;28;20567;-81
2021/01/10 00:53:34;;;;;;;35.25;19.73;;;;;;;0.82;100.00;101529.09;5201473;28;20227;-80
2021/01/10 00:56:05;;;;;;;32.47;18.27;;;;;;;1.07;100.00;101523.53;5202538;28;20025;-79
2021/01/10 00:58:36;;;;;;;31.02;17.35;;;;;;;0.84;100.00;101532.56;5202183;28;20033;-82
2021/01/10 01:01:07;;;;;;;31.13;18.60;;;;;;;0.67;100.00;101533.94;5202811;28;20025;-79
2021/01/10 01:03:37;;;;;;;33.67;19.58;;;;;;;0.57;100.00;101532.03;5201366;28;20029;-82
2021/01/10 01:06:11;;;;;;;40.00;20.35;;;;;;;0.58;100.00;101536.31;5202543;28;20092;-81
2021/01/10 01:08:42;;;;;;;33.72;19.20;;;;;;;0.58;100.00;101538.91;5202332;28;20026;-80
2021/01/10 01:11:13;;;;;;;38.03;21.05;;;;;;;0.60;100.00;101537.25;5201984;28;20104;-78
2021/01/10 01:13:43;;;;;;;36.30;20.40;;;;;;;0.52;100.00;101538.78;5202251;28;20041;-78
2021/01/10 01:16:13;;;;;;;38.50;19.25;;;;;;;0.51;100.00;101544.75;5202125;28;20112;-79
2021/01/10 01:18:43;;;;;;;36.67;20.35;;;;;;;0.53;100.00;101543.09;5202462;28;20036;-76
2021/01/10 01:21:18;;;;;;;35.40;20.25;;;;;;;0.58;100.00;101538.91;5185420;28;20034;-79
2021/01/10 01:23:49;;;;;;;26.70;14.47;;;;;;;0.62;100.00;101540.72;5207412;28;20132;-78
2021/01/10 01:26:21;;;;;;;35.58;19.25;;;;;;;0.44;100.00;101544.59;5201986;28;20059;-79
2021/01/10 01:28:53;;;;;;;37.00;19.48;;;;;;;0.35;100.00;101552.16;5208485;28;20086;-78
2021/01/10 01:31:25;;;;;;;31.83;18.83;;;;;;;0.40;100.00;101538.53;5202212;28;20025;-83
2021/01/10 01:33:55;;;;;;;32.42;18.00;;;;;;;0.61;100.00;101533.84;5201908;28;20053;-83
2021/01/10 01:36:28;;;;;;;31.05;17.88;;;;;;;0.55;100.00;101540.56;5202547;28;20056;-83
2021/01/10 01:39:01;;;;;;;32.65;17.83;;;;;;;0.33;100.00;101541.81;5201854;28;20025;-77
2021/01/10 01:41:38;;;;;;;36.53;18.95;;;;;;;0.27;100.00;101545.97;5202028;28;20521;-78
2021/01/10 01:44:08;;;;;;;34.25;18.75;;;;;;;0.40;100.00;101553.94;5201580;28;20024;-81
2021/01/10 01:46:38;;;;;;;35.22;18.88;;;;;;;0.63;100.00;101539.00;5201958;28;20650;-81
2021/01/10 01:49:10;;;;;;;32.67;18.10;;;;;;;0.46;100.00;101543.81;5201757;28;20054;-81
2021/01/10 01:51:41;;;;;;;31.95;18.88;;;;;;;0.35;100.00;101542.72;5201243;28;20431;-78
2021/01/10 01:54:12;;;;;;;30.15;18.23;;;;;;;0.43;100.00;101548.91;5201561;28;20028;-78
2021/01/10 01:56:42;;;;;;;31.95;18.88;;;;;;;0.43;100.00;101554.03;5201563;28;20037;-76
2021/01/10 01:59:13;;;;;;;33.90;19.45;;;;;;;0.28;100.00;101550.28;5201376;28;20029;-76
2021/01/10 02:01:43;;;;;;;32.95;19.00;;;;;;;0.38;100.00;101560.78;5201281;28;20033;-76
2021/01/10 02:04:29;;;;;;;30.77;18.02;;;;;;;0.46;100.00;101554.09;5201963;28;20102;-76
2021/01/10 02:07:20;;;;;;;33.65;18.52;;;;;;;0.53;100.00;101553.38;5201844;28;20104;-81
2021/01/10 02:09:56;;;;;;;33.63;18.73;;;;;;;0.54;100.00;101557.69;5201653;28;20021;-78
2021/01/10 02:12:30;;;;;;;30.75;18.92;;;;;;;0.35;100.00;101555.56;5201396;28;20022;-78
2021/01/10 02:15:10;;;;;;;30.45;18.25;;;;;;;0.54;100.00;101555.09;5204751;28;20108;-78
2021/01/10 02:17:44;;;;;;;31.92;18.33;;;;;;;0.47;100.00;101550.69;5208461;28;20029;-83
2021/01/10 02:20:20;;;;;;;32.92;18.33;;;;;;;0.55;100.00;101556.84;5208705;28;20029;-79
2021/01/10 02:23:10;;;;;;;30.15;18.60;;;;;;;0.41;100.00;101555.69;5211661;28;20507;-78
2021/01/10 02:25:42;;;;;;;28.67;17.65;;;;;;;0.53;100.00;101555.09;5208146;28;20029;-79
2021/01/10 02:28:21;;;;;;;31.35;18.45;;;;;;;0.56;100.00;101555.16;5207611;28;20041;-79
2021/01/10 02:30:52;;;;;;;29.80;18.08;;;;;;;0.60;100.00;101550.09;5207965;28;20511;-80
2021/01/10 02:33:45;;;;;;;31.13;19.42;;;;;;;0.58;100.00;101554.31;5208406;28;20676;-78
2021/01/10 02:36:25;;;;;;;29.25;18.25;;;;;;;0.55;100.00;101554.28;5208234;28;20029;-78
2021/01/10 02:39:02;;;;;;;28.83;17.48;;;;;;;0.59;100.00;101545.78;5208198;28;20032;-77
2021/01/10 02:41:54;;;;;;;29.33;18.35;;;;;;;0.73;100.00;101543.50;5207091;28;20021;-82
2021/01/10 02:44:30;;;;;;;28.73;17.77;;;;;;;0.72;100.00;101546.91;5208486;28;20089;-80
2021/01/10 02:47:00;;;;;;;27.25;16.58;;;;;;;0.57;100.00;101557.72;5206958;28;20284;-79
2021/01/10 02:49:31;;;;;;;26.50;16.25;;;;;;;0.73;100.00;101559.78;5208466;28;20029;-82
2021/01/10 02:52:01;;;;;;;29.75;17.48;;;;;;;0.72;100.00;101558.03;5208024;28;20418;-82
2021/01/10 02:54:32;;;;;;;27.58;16.85;;;;;;;0.71;100.00;101546.03;5208102;28;20033;-81
2021/01/10 02:57:15;;;;;;;25.80;16.92;;;;;;;0.68;100.00;101540.81;5208061;28;20035;-80
2021/01/10 02:59:47;;;;;;;30.10;17.63;;;;;;;0.60;100.00;101542.41;5207736;28;20121;-79
2021/01/10 03:02:19;;;;;;;26.40;16.42;;;;;;;0.54;100.00;101547.41;5213001;28;20537;-76
2021/01/10 03:04:50;;;;;;;27.08;16.75;;;;;;;0.58;100.00;101546.59;5207948;28;20029;-78
2021/01/10 03:07:20;;;;;;;26.30;17.55;;;;;;;0.68;100.00;101545.97;5208103;28;20052;-82
2021/01/10 03:09:51;;;;;;;25.35;16.58;;;;;;;0.64;100.00;101539.03;5207924;28;20113;-77
2021/01/10 03:12:26;;;;;;;26.55;16.67;;;;;;;0.46;100.00;101541.25;5207792;28;20036;-78
2021/01/10 03:14:58;;;;;;;27.27;17.63;;;;;;;0.57;100.00;101539.72;5207633;28;20021;-80
2021/01/10 03:17:36;;;;;;;28.00;16.75;;;;;;;0.49;100.00;101527.56;5207970;28;20040;-82
2021/01/10 03:20:10;;;;;;;27.92;16.35;;;;;;;0.63;100.00;101524.44;5207935;28;20075;-81
2021/01/10 03:22:41;;;;;;;26.98;16.90;;;;;;;0.64;100.00;101533.91;5207686;28;20506;-78
2021/01/10 03:25:14;;;;;;;28.50;16.25;;;;;;;0.85;100.00;101530.84;5207494;28;20040;-77
2021/01/10 03:27:44;;;;;;;26.83;16.65;;;;;;;0.73;100.00;101534.06;5202543;28;20029;-78
2021/01/10 03:30:17;;;;;;;26.88;16.13;;;;;;;0.97;100.00;101528.50;5204144;28;20064;-78
2021/01/10 03:32:47;;;;;;;25.35;15.98;;;;;;;0.98;100.00;101525.97;5203460;28;20029;-80
2021/01/10 03:35:18;;;;;;;25.77;15.35;;;;;;;0.88;100.00;101518.06;5203996;28;20025;-78
2021/01/10 03:37:48;;;;;;;27.08;16.08;;;;;;;0.53;100.00;101521.66;5203979;28;20029;-82
2021/01/10 03:40:19;;;;;;;29.00;16.67;;;;;;;0.52;100.00;101525.94;5204369;28;20014;-79
2021/01/10 03:42:49;;;;;;;27.55;16.35;;;;;;;0.58;100.00;101522.63;5204192;28;20029;-82
2021/01/10 03:45:19;;;;;;;27.50;16.75;;;;;;;0.56;100.00;101525.16;5204208;28;20033;-82
2021/01/10 03:47:50;;;;;;;27.40;16.75;;;;;;;0.74;100.00;101520.34;5204383;28;20028;-81
2021/01/10 03:50:20;;;;;;;27.92;15.25;;;;;;;0.64;100.00;101520.16;5203725;28;20076;-77
2021/01/10 03:52:51;;;;;;;27.92;16.85;;;;;;;0.60;100.00;101521.81;5204414;28;20033;-77
2021/01/10 03:55:21;;;;;;;28.33;16.52;;;;;;;0.53;100.00;101525.09;5204013;28;20033;-79
2021/01/10 03:57:51;;;;;;;25.83;16.33;;;;;;;0.54;100.00;101511.41;5204149;28;20044;-79
2021/01/10 04:00:22;;;;;;;23.50;15.57;;;;;;;0.40;100.00;101510.25;5204027;28;20472;-81
2021/01/10 04:02:52;;;;;;;26.00;17.15;;;;;;;0.56;100.00;101512.28;5204109;28;20029;-82
2021/01/10 04:05:22;;;;;;;23.77;16.08;;;;;;;0.90;100.00;101512.09;5203854;28;20035;-81
2021/01/10 04:07:52;;;;;;;25.42;15.85;;;;;;;0.59;100.00;101514.91;5203766;28;20029;-81
2021/01/10 04:10:23;;;;;;;23.83;15.57;;;;;;;0.70;100.00;101522.88;5203714;28;20025;-81
2021/01/10 04:12:53;;;;;;;26.55;16.40;;;;;;;0.58;100.00;101513.19;5203088;28;20707;-79
2021/01/10 04:15:23;;;;;;;28.27;17.00;;;;;;;0.60;100.00;101513.22;5203442;28;20598;-79
2021/01/10 04:17:53;;;;;;;27.60;17.30;;;;;;;0.35;100.00;101514.44;5203628;28;20033;-79
2021/01/10 04:20:24;;;;;;;29.40;17.23;;;;;;;0.52;100.00;101505.34;5206151;28;20142;-79
2021/01/10 04:22:54;;;;;;;29.08;16.65;;;;;;;0.35;100.00;101496.44;5202959;28;20024;-79
2021/01/10 04:25:24;;;;;;;27.63;17.08;;;;;;;0.43;100.00;101494.91;5203202;28;20059;-78
2021/01/10 04:27:54;;;;;;;27.00;16.27;;;;;;;0.56;100.00;101496.88;5203617;28;20036;-81
2021/01/10 04:30:25;;;;;;;25.20;16.20;;;;;;;0.52;100.00;101497.66;5207977;28;20480;-82
2021/01/10 04:32:55;;;;;;;24.83;16.02;;;;;;;0.49;100.00;101497.59;5201761;28;20083;-81
2021/01/10 04:35:25;;;;;;;26.17;16.33;;;;;;;0.48;100.00;101501.00;5202590;28;20052;-80
2021/01/10 04:37:55;;;;;;;25.13;16.33;;;;;;;0.49;100.00;101496.72;5202764;28;20025;-79
2021/01/10 04:40:26;;;;;;;24.80;15.88;;;;;;;0.61;100.00;101499.53;5203298;28;20030;-77
2021/01/10 04:42:57;;;;;;;24.02;15.40;;;;;;;0.73;100.00;101498.03;5202555;28;20025;-77
2021/01/10 04:45:28;;;;;;;23.60;15.40;;;;;;;0.75;100.00;101498.94;5203104;28;20529;-77
2021/01/10 04:47:59;;;;;;;23.38;15.88;;;;;;;0.59;100.00;101498.63;5202693;28;20527;-79
2021/01/10 04:50:33;;;;;;;23.80;15.40;;;;;;;0.72;100.00;101496.31;5203172;28;20025;-83
2021/01/10 04:53:03;;;;;;;22.05;14.60;;;;;;;0.83;100.00;101499.06;5202527;28;20155;-79
2021/01/10 04:55:37;;;;;;;21.25;14.05;;;;;;;0.62;100.00;101499.56;5203093;28;20116;-80
2021/01/10 04:58:08;;;;;;;22.00;14.60;;;;;;;0.67;100.00;101500.50;5202421;28;20050;-77
2021/01/10 05:00:40;;;;;;;23.88;15.35;;;;;;;0.53;100.00;101501.09;5202602;28;20436;-77
2021/01/10 05:03:13;;;;;;;22.55;14.57;;;;;;;0.78;100.00;101496.44;5202466;28;20036;-80
2021/01/10 05:05:44;;;;;;;22.30;14.45;;;;;;;0.73;100.00;101490.31;5209690;28;20043;-78
2021/01/10 05:08:14;;;;;;;23.90;14.82;;;;;;;0.74;100.00;101492.06;5203355;28;20021;-79
2021/01/10 05:10:45;;;;;;;22.85;14.90;;;;;;;0.73;100.00;101494.63;5203768;28;20621;-78
2021/01/10 05:13:15;;;;;;;22.00;14.57;;;;;;;0.66;100.00;101495.31;5202141;28;20048;-78
2021/01/10 05:15:45;;;;;;;24.05;15.52;;;;;;;0.75;100.00;101490.38;5201360;28;20053;-79
2021/01/10 05:18:16;;;;;;;21.80;14.40;;;;;;;0.72;100.00;101491.16;5202116;28;20079;-82
2021/01/10 05:20:46;;;;;;;25.10;16.17;;;;;;;0.68;100.00;101491.97;5202722;28;20048;-79
2021/01/10 05:23:17;;;;;;;24.42;15.65;;;;;;;0.60;100.00;101490.09;5202961;28;20124;-78
2021/01/10 05:26:01;;;;;;;24.85;15.43;;;;;;;0.64;100.00;101482.47;5201972;28;20452;-81
2021/01/10 05:28:35;;;;;;;24.20;15.80;;;;;;;0.55;100.00;101487.41;5201903;28;20026;-80
2021/01/10 05:31:10;;;;;;;28.13;16.52;;;;;;;0.41;100.00;101494.00;5201985;28;20602;-83
2021/01/10 05:33:48;;;;;;;26.85;16.42;;;;;;;0.39;100.00;101493.09;5201641;28;20443;-78
2021/01/10 05:36:25;;;;;;;26.58;16.58;;;;;;;0.44;100.00;101499.22;5202057;28;20032;-80
2021/01/10 05:38:57;;;;;;;27.05;16.90;;;;;;;0.53;100.00;101501.09;5201465;28;20056;-81
2021/01/10 05:41:28;;;;;;;25.17;16.05;;;;;;;0.50;100.00;101491.63;5201096;28;20029;-77
2021/01/10 05:44:00;;;;;;;25.90;16.02;;;;;;;0.46;100.00;101505.25;5201028;28;20353;-82
2021/01/10 05:46:31;;;;;;;25.85;16.17;;;;;;;0.55;100.00;101507.97;5202380;28;20049;-78
2021/01/10 05:49:02;;;;;;;25.40;16.42;;;;;;;0.54;100.00;101518.25;5201413;28;20164;-79
2021/01/10 05:51:32;;;;;;;26.20;16.50;;;;;;;0.40;100.00;101511.97;5201483;28;20112;-82
2021/01/10 05:54:03;;;;;;;25.75;16.30;;;;;;;0.53;100.00;101512.22;5201333;28;20037;-80
2021/01/10 05:56:33;;;;;;;25.40;15.88;;;;;;;0.48;100.00;101506.16;5201452;28;20757;-78
2021/01/10 05:59:04;;;;;;;24.30;15.52;;;;;;;0.30;100.00;101510.91;5201580;28;20724;-77
2021/01/10 06:01:35;;;;;;;25.67;15.98;;;;;;;0.43;100.00;101519.75;5201866;28;20021;-81
2021/01/10 06:04:21;;;;;;;26.05;16.05;;;;;;;0.48;100.00;101524.13;5201346;28;20029;-80
2021/01/10 06:06:51;;;;;;;26.50;15.52;;;;;;;0.48;100.00;101516.44;5201024;28;20025;-80
2021/01/10 06:09:22;;;;;;;25.90;16.45;;;;;;;0.21;100.00;101517.56;5201364;28;20021;-80
2021/01/10 06:11:52;;;;;;;26.13;16.38;;;;;;;0.20;100.00;101516.69;5200654;28;20100;-79
2021/01/10 06:14:24;;;;;;;27.02;16.00;;;;;;;0.32;100.00;101514.38;5201175;28;20060;-79
2021/01/10 06:16:57;;;;;;;25.60;16.25;;;;;;;0.40;100.00;101522.25;5201924;28;20707;-79
2021/01/10 06:19:29;;;;;;;24.35;15.63;;;;;;;0.45;100.00;101520.63;5201165;28;20424;-77
2021/01/10 06:22:00;;;;;;;24.35;15.63;;;;;;;0.57;100.00;101518.31;5201607;28;20052;-78
2021/01/10 06:24:35;;;;;;;24.10;15.80;;;;;;;0.40;100.00;101522.25;5201281;28;20035;-80
2021/01/10 06:27:10;;;;;;;25.05;15.23;;;;;;;0.59;100.00;101519.22;5201717;28;20030;-77
2021/01/10 06:29:41;;;;;;;24.73;15.37;;;;;;;0.53;100.00;101519.09;5201162;28;20503;-77
2021/01/10 06:32:12;;;;;;;26.65;15.90;;;;;;;0.55;100.00;101525.97;5201536;28;20025;-82
2021/01/10 06:34:42;;;;;;;25.13;15.82;;;;;;;0.32;100.00;101536.63;5201106;28;20476;-80
2021/01/10 06:37:12;;;;;;;24.77;15.25;;;;;;;0.28;100.00;101532.28;5200607;28;20017;-80
2021/01/10 06:39:46;;;;;;;22.65;15.32;;;;;;;0.41;100.00;101535.13;5200890;28;20025;-77
2021/01/10 06:42:17;;;;;;;26.45;15.77;;;;;;;0.40;100.00;101525.69;5200324;28;20060;-78
2021/01/10 06:44:51;;;;;;;24.85;15.68;;;;;;;0.55;100.00;101523.41;5201095;28;20057;-81
2021/01/10 06:47:22;;;;;;;22.80;15.48;;;;;;;0.49;100.00;101522.41;5200783;28;20025;-79
2021/01/10 06:49:53;;;;;;;24.17;15.52;;;;;;;0.36;100.00;101526.47;5200803;28;20037;-81
2021/01/10 06:52:24;;;;;;;26.35;16.20;;;;;;;0.57;100.00;101526.03;5201033;28;20373;-81
2021/01/10 06:54:54;;;;;;;22.20;14.57;;;;;;;0.63;100.00;101521.88;5201138;28;20041;-79
2021/01/10 06:57:31;;;;;;;23.63;15.23;;;;;;;0.58;100.00;101515.75;5201390;28;20040;-78
2021/01/10 07:00:08;;;;;;;21.48;14.13;;;;;;;0.65;100.00;101519.31;5200611;28;20060;-77
2021/01/10 07:03:06;;;;;;;24.10;15.13;;;;;;;0.66;100.00;101516.78;5203643;28;20464;-79
2021/01/10 07:06:12;;;;;;;23.20;14.60;;;;;;;0.65;100.00;101509.91;5204506;28;20493;-81
2021/01/10 07:08:52;;;;;;;23.10;14.57;;;;;;;0.64;100.00;101507.28;5178508;28;20165;-80
2021/01/10 07:11:25;;;;;;;20.70;13.18;;;;;;;0.59;100.00;101514.06;5202191;28;20033;-77
2021/01/10 07:14:01;;;;;;;20.38;14.00;;;;;;;0.59;100.00;101514.91;5204130;28;20017;-78
2021/01/10 07:16:33;;;;;;;22.38;13.38;;;;;;;0.56;100.00;101519.16;5203757;28;20025;-77
2021/01/10 07:19:08;;;;;;;23.98;13.82;;;;;;;0.56;100.00;101520.00;5204348;28;20040;-80
2021/01/10 07:21:49;;;;;;;22.90;14.30;;;;;;;0.64;100.00;101510.75;5204660;28;20025;-78
2021/01/10 07:24:30;;;;;;;21.63;13.85;;;;;;;0.70;100.00;101522.88;5204111;28;20057;-80
2021/01/10 07:27:02;;;;;;;23.02;13.88;;;;;;;0.65;100.00;101525.34;5204429;28;20030;-81
2021/01/10 07:29:38;;;;;;;22.05;14.07;;;;;;;0.74;100.00;101524.66;5204405;28;20147;-80
2021/01/10 07:32:14;;;;;;;19.92;12.98;;;;;;;0.57;100.00;101519.16;5204487;28;20021;-80
2021/01/10 07:34:45;;;;;;;18.00;12.15;;;;;;;0.59;100.00;101527.78;5204106;28;20029;-76
2021/01/10 07:37:15;;;;;;;22.10;13.00;;;;;;;0.69;100.00;101527.13;5204365;28;20026;-76
2021/01/10 07:39:57;;;;;;;18.77;11.82;;;;;;;0.53;100.00;101527.66;5203826;28;20033;-78
2021/01/10 07:42:38;;;;;;;20.98;12.10;;;;;;;0.28;100.00;101533.16;5203056;28;20532;-81
2021/01/10 07:45:17;;;;;;;18.60;12.38;;;;;;;0.48;100.00;101521.56;5203370;28;20030;-78
2021/01/10 07:47:51;;;;;;;17.20;11.80;;;;;;;0.51;100.00;101531.03;5197631;28;20534;-82
2021/01/10 07:50:23;;;;;;;16.90;11.25;;;;;;;0.71;100.00;101525.44;5203557;28;20033;-81
2021/01/10 07:52:55;;;;;;;16.20;10.82;;;;;;;0.55;100.00;101527.72;5203808;28;20029;-79
2021/01/10 07:55:27;;;;;;;19.65;11.23;;;;;;;0.41;100.00;101531.69;5203729;28;20036;-78
2021/01/10 07:58:00;;;;;;;17.67;10.38;;;;;;;0.23;100.00;101536.47;5203709;28;20036;-78
2021/01/10 08:00:35;;;;;;;15.57;10.35;;;;;;;0.27;100.00;101536.56;5203858;28;20033;-81
2021/01/10 08:03:07;;;;;;;15.70;10.57;;;;;;;0.29;100.00;101547.75;5203601;28;20095;-77
2021/01/10 08:05:40;;;;;;;13.95;9.52;;;;;;;0.33;100.00;101546.09;5204151;28;20026;-78
2021/01/10 08:08:14;;;;;;;14.77;10.05;;;;;;;0.23;100.00;101544.19;5201108;28;20033;-81
2021/01/10 08:10:51;;;;;;;14.93;9.73;;;;;;;0.09;100.00;101540.44;5203128;28;20534;-79
2021/01/10 08:13:37;;;;;;;12.65;8.65;;;;;;;0.32;100.00;101541.78;5202929;28;20476;-82
2021/01/10 08:16:10;;;;;;;12.77;8.88;;;;;;;0.48;100.00;101547.28;5203871;28;20053;-78
2021/01/10 08:18:42;;;;;;;14.88;8.88;;;;;;;0.52;100.00;101556.78;5203451;28;20030;-78
2021/01/10 08:21:17;;;;;;;13.13;9.15;;;;;;;0.62;100.00;101553.56;5203825;28;20112;-78
2021/01/10 08:23:53;;;;;;;12.82;8.52;;;;;;;0.62;100.00;101551.00;5202818;28;20029;-78
2021/01/10 08:26:24;;;;;;;14.23;9.43;;;;;;;0.41;100.00;101555.69;5203474;28;20033;-79
2021/01/10 08:28:57;;;;;;;15.35;9.55;;;;;;;0.51;100.00;101557.63;5202632;28;20037;-80
2021/01/10 08:31:29;;;;;;;14.35;9.20;;;;;;;0.33;100.00;101562.38;5203190;28;20025;-78
2021/01/10 08:33:59;;;;;;;13.93;9.50;;;;;;;0.45;100.00;101565.22;5201143;28;20053;-80
2021/01/10 08:36:31;;;;;;;13.88;9.13;;;;;;;0.69;100.00;101564.84;5205629;28;20134;-79
2021/01/10 08:39:09;;;;;;;15.00;10.10;;;;;;;0.70;100.00;101564.00;5199945;28;20034;-81
2021/01/10 08:41:47;;;;;;;16.83;10.82;;;;;;;0.82;100.00;101559.97;5203024;28;20021;-82
2021/01/10 08:44:20;;;;;;;17.25;10.52;;;;;;;0.60;100.00;101562.97;5197144;28;20025;-81
2021/01/10 08:46:52;;;;;;;16.00;10.43;;;;;;;0.96;100.00;101562.78;5199978;28;20029;-78
2021/01/10 08:49:23;;;;;;;18.55;11.07;;;;;;;0.95;100.00;101559.38;5202808;28;20076;-79
2021/01/10 08:51:53;;;;;;;14.13;9.32;;;;;;;1.07;100.00;101562.13;5183395;28;20022;-79
2021/01/10 08:54:24;;;;;;;13.23;9.30;;;;;;;1.01;100.00;101559.47;5187534;28;20511;-79
2021/01/10 08:56:56;;;;;;;15.55;10.57;;;;;;;1.03;100.00;101569.81;5182342;28;20040;-82
2021/01/10 08:59:36;;;;;;;15.07;9.90;;;;;;;0.83;100.00;101568.53;5181926;28;20514;-82
2021/01/10 09:02:08;;;;;;;15.68;10.10;;;;;;;0.87;100.00;101568.63;5180862;28;20021;-80
2021/01/10 09:04:40;;;;;;;20.95;10.75;;;;;;;1.15;100.00;101563.16;5190817;28;20541;-80
2021/01/10 09:07:10;;;;;;;13.55;9.05;;;;;;;1.44;100.00;101572.25;5191727;28;20108;-78
2021/01/10 09:10:03;;;;;;;16.40;10.07;;;;;;;1.34;100.00;101564.34;5195690;28;20108;-78
2021/01/10 09:12:47;;;;;;;13.32;9.05;;;;;;;1.59;100.00;101564.75;5181481;28;20499;-79
2021/01/10 09:15:33;;;;;;;17.27;9.65;;;;;;;1.66;100.00;101566.63;5180537;28;20125;-80
2021/01/10 09:18:09;;;;;;;14.63;9.65;;;;;;;1.20;100.00;101579.53;5181675;28;20030;-78
2021/01/10 09:20:48;;;;;;;16.40;10.02;;;;;;;0.91;100.00;101577.28;5182183;28;20678;-78
2021/01/10 09:23:20;;;;;;;14.77;9.43;;;;;;;1.03;100.00;101570.66;5181607;28;20497;-77
2021/01/10 09:25:50;;;;;;;13.48;9.60;;;;;;;1.03;100.00;101572.38;5180664;28;20030;-79
2021/01/10 09:28:21;;;;;;;15.95;10.15;;;;;;;1.27;100.00;101570.22;5181911;28;20064;-78
2021/01/10 09:30:53;;;;;;;15.57;10.23;;;;;;;1.01;100.00;101572.34;5181147;28;20040;-80
2021/01/10 09:33:27;;;;;;;16.10;10.48;;;;;;;1.02;100.00;101574.06;5181609;28;20026;-77
2021/01/10 09:36:00;;;;;;;17.90;10.50;;;;;;;1.43;100.00;101567.94;5189565;28;20029;-78
2021/01/10 09:38:36;;;;;;;17.58;10.20;;;;;;;1.51;100.00;101571.53;5196181;28;20021;-80
2021/01/10 09:41:12;;;;;;;18.08;10.65;;;;;;;1.38;100.00;101569.56;5198937;28;20620;-78
2021/01/10 09:43:50;;;;;;;14.98;9.95;;;;;;;1.67;100.00;101570.94;5193114;28;20113;-78
2021/01/10 09:46:27;;;;;;;14.77;9.65;;;;;;;1.69;100.00;101573.50;5198738;28;20088;-80
2021/01/10 09:49:01;;;;;;;17.77;10.75;;;;;;;1.54;100.00;101576.72;5201424;28;20444;-78
2021/01/10 09:51:36;;;;;;;15.60;10.15;;;;;;;1.89;100.00;101567.84;5201333;28;20049;-79
2021/01/10 09:54:12;;;;;;;15.40;10.10;;;;;;;1.86;100.00;101576.38;5193730;28;20056;-80
2021/01/10 09:56:43;;;;;;;16.88;10.43;;;;;;;1.90;100.00;101572.13;5193673;28;20549;-81
2021/01/10 09:59:39;;;;;;;14.32;10.15;;;;;;;1.86;100.00;101575.53;5199068;28;20110;-77
2021/01/10 10:02:11;;;;;;;14.85;9.45;;;;;;;1.87;100.00;101574.69;5201204;28;20025;-77
2021/01/10 10:04:46;;;;;;;14.90;9.65;;;;;;;1.75;100.00;101566.75;5201333;28;20025;-80
2021/01/10 10:07:33;;;;;;;16.67;10.43;;;;;;;1.55;100.00;101557.84;5195643;28;20503;-77
2021/01/10 10:10:21;;;;;;;14.32;10.00;;;;;;;1.75;100.00;101556.44;5190913;28;20113;-80
2021/01/10 10:12:55;;;;;;;19.15;10.93;;;;;;;1.53;100.00;101564.69;5190456;28;20064;-78
2021/01/10 10:15:57;;;;;;;16.67;10.27;;;;;;;1.78;100.00;101559.94;5188817;28;20044;-78
2021/01/10 10:18:31;;;;;;;18.88;11.07;;;;;;;1.56;100.00;101571.59;5182382;28;20488;-78
2021/01/10 10:21:01;;;;;;;18.42;11.20;;;;;;;1.59;100.00;101559.63;5187713;28;20026;-79
2021/01/10 10:23:31;;;;;;;17.27;10.90;;;;;;;1.46;100.00;101560.28;5188829;28;20099;-81
2021/01/10 10:26:02;;;;;;;17.88;11.68;;;;;;;1.52;100.00;101552.66;5193919;28;20037;-78
2021/01/10 10:28:33;;;;;;;18.90;11.95;;;;;;;1.52;100.00;101549.19;5196076;28;20762;-78
2021/01/10 10:31:03;;;;;;;17.85;11.63;;;;;;;1.63;100.00;101547.66;5199592;28;20120;-80
2021/01/10 10:33:36;;;;;;;18.15;11.98;;;;;;;1.71;100.00;101540.94;5200255;28;20033;-79
2021/01/10 10:36:06;;;;;;;18.58;11.75;;;;;;;1.64;100.00;101546.81;5198860;28;20431;-78
2021/01/10 10:38:37;;;;;;;18.35;11.80;;;;;;;1.50;100.00;101544.03;5202604;28;20026;-79
2021/01/10 10:41:07;;;;;;;19.63;12.35;;;;;;;1.43;100.00;101552.47;5204882;28;20021;-77
2021/01/10 10:43:37;;;;;;;18.90;12.18;;;;;;;1.57;100.00;101539.84;5203959;28;20472;-79
2021/01/10 10:46:08;;;;;;;19.50;11.90;;;;;;;1.61;100.00;101539.91;5203799;28;20487;-78
2021/01/10 10:48:38;;;;;;;18.65;12.10;;;;;;;1.55;100.00;101542.38;5204423;28;20033;-79
2021/01/10 10:51:08;;;;;;;21.17;12.52;;;;;;;1.51;100.00;101535.47;5204721;28;20037;-78
2021/01/10 10:53:38;;;;;;;21.52;13.27;;;;;;;1.76;100.00;101539.28;5198580;28;20061;-78
2021/01/10 10:56:09;;;;;;;22.00;13.45;;;;;;;1.89;100.00;101529.16;5194048;28;20092;-78
2021/01/10 10:58:39;;;;;;;24.25;13.63;;;;;;;1.98;100.00;101529.31;5191671;28;20041;-80
2021/01/10 11:01:09;;;;;;;22.52;13.73;;;;;;;2.35;100.00;101526.38;5209945;28;20075;-78
2021/01/10 11:03:39;;;;;;;19.77;12.55;;;;;;;2.39;100.00;101520.41;5204038;28;20032;-79
2021/01/10 11:06:10;;;;;;;22.85;13.60;;;;;;;2.28;100.00;101515.13;5204045;28;20025;-79
2021/01/10 11:08:40;;;;;;;23.40;14.52;;;;;;;2.38;100.00;101516.97;5205305;28;20493;-79
2021/01/10 11:11:10;;;;;;;22.08;13.50;;;;;;;2.65;100.00;101516.44;5204054;28;20024;-78
2021/01/10 11:13:40;;;;;;;21.23;13.02;;;;;;;2.80;100.00;101506.25;5204502;28;20021;-79
2021/01/10 11:16:11;;;;;;;23.13;13.43;;;;;;;2.57;99.81;101502.56;5194196;28;20025;-80
2021/01/10 11:18:41;;;;;;;20.08;13.05;;;;;;;2.50;100.00;101504.19;5203519;28;20096;-79
2021/01/10 11:21:11;;;;;;;17.52;12.15;;;;;;;2.82;100.00;101504.56;5207711;28;20020;-78
2021/01/10 11:23:42;;;;;;;19.00;12.50;;;;;;;2.71;99.85;101504.44;5205322;28;20033;-77
2021/01/10 11:26:12;;;;;;;21.08;12.82;;;;;;;2.61;100.00;101501.75;5208516;28;20060;-77
2021/01/10 11:28:42;;;;;;;22.60;13.45;;;;;;;2.62;100.00;101500.91;5203499;28;20021;-80
2021/01/10 11:31:13;;;;;;;21.60;13.93;;;;;;;2.65;100.00;101504.38;5204121;28;20025;-77
2021/01/10 11:33:44;;;;;;;21.05;12.63;;;;;;;2.83;100.00;101495.97;5203208;28;20021;-78
2021/01/10 11:36:15;;;;;;;24.15;13.95;;;;;;;2.70;99.53;101494.13;5207071;28;20054;-77